sensor_id;sensor_type;location;lat;lon;timestamp;temperature;humidity
10447;DHT22;5271;44.422;26.092;2023-04-08T00:01:43;10.50;90.80
10447;DHT22;5271;44.422;26.092;2023-04-08T00:04:11;10.50;90.70
10447;DHT22;5271;44.422;26.092;2023-04-08T00:06:39;10.60;90.70
10447;DHT22;5271;44.422;26.092;2023-04-08T00:09:06;10.60;90.50
10447;DHT22;5271;44.422;26.092;2023-04-08T00:11:32;10.80;90.50
10447;DHT22;5271;44.422;26.092;2023-04-08T00:14:01;10.80;90.30
10447;DHT22;5271;44.422;26.092;2023-04-08T00:16:28;10.90;90.00
10447;DHT22;5271;44.422;26.092;2023-04-08T00:18:55;10.90;90.20
10447;DHT22;5271;44.422;26.092;2023-04-08T00:21:23;11.00;90.30
10447;DHT22;5271;44.422;26.092;2023-04-08T00:23:51;10.90;90.20
10447;DHT22;5271;44.422;26.092;2023-04-08T00:26:18;11.00;90.10
10447;DHT22;5271;44.422;26.092;2023-04-08T00:28:45;11.10;90.00
10447;DHT22;5271;44.422;26.092;2023-04-08T00:31:12;11.10;89.90
10447;DHT22;5271;44.422;26.092;2023-04-08T00:33:39;11.10;89.80
10447;DHT22;5271;44.422;26.092;2023-04-08T00:36:06;11.20;89.60
10447;DHT22;5271;44.422;26.092;2023-04-08T00:38:34;11.20;90.10
10447;DHT22;5271;44.422;26.092;2023-04-08T00:41:01;11.10;90.30
10447;DHT22;5271;44.422;26.092;2023-04-08T00:43:27;10.90;90.40
10447;DHT22;5271;44.422;26.092;2023-04-08T00:45:54;10.90;90.40
10447;DHT22;5271;44.422;26.092;2023-04-08T00:48:21;10.90;90.70
10447;DHT22;5271;44.422;26.092;2023-04-08T00:50:48;10.90;90.50
10447;DHT22;5271;44.422;26.092;2023-04-08T00:53:17;10.90;90.70
10447;DHT22;5271;44.422;26.092;2023-04-08T00:55:46;10.90;90.80
10447;DHT22;5271;44.422;26.092;2023-04-08T00:58:13;10.90;90.80
10447;DHT22;5271;44.422;26.092;2023-04-08T01:00:43;10.80;90.80
10447;DHT22;5271;44.422;26.092;2023-04-08T01:03:16;10.80;90.90
10447;DHT22;5271;44.422;26.092;2023-04-08T01:05:52;10.80;91.00
10447;DHT22;5271;44.422;26.092;2023-04-08T01:08:23;10.80;91.00
10447;DHT22;5271;44.422;26.092;2023-04-08T01:10:58;10.80;91.00
10447;DHT22;5271;44.422;26.092;2023-04-08T01:13:30;10.80;91.10
10447;DHT22;5271;44.422;26.092;2023-04-08T01:16:00;10.80;91.20
10447;DHT22;5271;44.422;26.092;2023-04-08T01:18:28;10.80;91.30
10447;DHT22;5271;44.422;26.092;2023-04-08T01:20:57;10.70;91.50
10447;DHT22;5271;44.422;26.092;2023-04-08T01:23:34;10.60;91.70
10447;DHT22;5271;44.422;26.092;2023-04-08T01:26:04;10.60;91.80
10447;DHT22;5271;44.422;26.092;2023-04-08T01:28:32;10.60;92.00
10447;DHT22;5271;44.422;26.092;2023-04-08T01:31:00;10.50;92.20
10447;DHT22;5271;44.422;26.092;2023-04-08T01:33:28;10.40;92.30
10447;DHT22;5271;44.422;26.092;2023-04-08T01:35:56;10.40;92.40
10447;DHT22;5271;44.422;26.092;2023-04-08T01:38:25;10.40;92.30
10447;DHT22;5271;44.422;26.092;2023-04-08T01:40:54;10.40;92.50
10447;DHT22;5271;44.422;26.092;2023-04-08T01:43:24;10.40;92.50
10447;DHT22;5271;44.422;26.092;2023-04-08T01:45:52;10.40;92.60
10447;DHT22;5271;44.422;26.092;2023-04-08T01:48:23;10.30;92.60
10447;DHT22;5271;44.422;26.092;2023-04-08T01:50:51;10.30;92.70
10447;DHT22;5271;44.422;26.092;2023-04-08T01:53:18;10.30;92.70
10447;DHT22;5271;44.422;26.092;2023-04-08T01:55:46;10.30;92.80
10447;DHT22;5271;44.422;26.092;2023-04-08T01:58:19;10.30;92.80
10447;DHT22;5271;44.422;26.092;2023-04-08T02:00:48;10.30;92.70
10447;DHT22;5271;44.422;26.092;2023-04-08T02:03:17;10.40;92.70
10447;DHT22;5271;44.422;26.092;2023-04-08T02:05:45;10.40;92.70
10447;DHT22;5271;44.422;26.092;2023-04-08T02:08:12;10.50;92.70
10447;DHT22;5271;44.422;26.092;2023-04-08T02:10:39;10.50;92.80
10447;DHT22;5271;44.422;26.092;2023-04-08T02:13:07;10.50;92.80
10447;DHT22;5271;44.422;26.092;2023-04-08T02:15:35;10.40;92.80
10447;DHT22;5271;44.422;26.092;2023-04-08T02:18:10;10.30;93.20
10447;DHT22;5271;44.422;26.092;2023-04-08T02:20:45;10.30;93.10
10447;DHT22;5271;44.422;26.092;2023-04-08T02:23:16;10.30;93.30
10447;DHT22;5271;44.422;26.092;2023-04-08T02:25:46;10.30;93.30
10447;DHT22;5271;44.422;26.092;2023-04-08T02:28:14;10.20;93.30
10447;DHT22;5271;44.422;26.092;2023-04-08T02:30:47;10.20;93.40
10447;DHT22;5271;44.422;26.092;2023-04-08T02:33:16;10.30;93.40
10447;DHT22;5271;44.422;26.092;2023-04-08T02:35:44;10.30;93.50
10447;DHT22;5271;44.422;26.092;2023-04-08T02:38:11;10.30;93.30
10447;DHT22;5271;44.422;26.092;2023-04-08T02:40:38;10.30;93.20
10447;DHT22;5271;44.422;26.092;2023-04-08T02:43:05;10.30;93.40
10447;DHT22;5271;44.422;26.092;2023-04-08T02:45:34;10.30;93.40
10447;DHT22;5271;44.422;26.092;2023-04-08T02:48:02;10.30;93.30
10447;DHT22;5271;44.422;26.092;2023-04-08T02:50:31;10.30;93.40
10447;DHT22;5271;44.422;26.092;2023-04-08T02:52:58;10.30;93.50
10447;DHT22;5271;44.422;26.092;2023-04-08T02:55:25;10.30;93.40
10447;DHT22;5271;44.422;26.092;2023-04-08T02:57:52;10.30;93.50
10447;DHT22;5271;44.422;26.092;2023-04-08T03:00:19;10.20;93.50
10447;DHT22;5271;44.422;26.092;2023-04-08T03:02:46;10.30;93.50
10447;DHT22;5271;44.422;26.092;2023-04-08T03:05:12;10.30;93.50
10447;DHT22;5271;44.422;26.092;2023-04-08T03:07:42;10.30;93.40
10447;DHT22;5271;44.422;26.092;2023-04-08T03:10:09;10.30;93.50
10447;DHT22;5271;44.422;26.092;2023-04-08T03:12:36;10.30;93.40
10447;DHT22;5271;44.422;26.092;2023-04-08T03:15:03;10.30;93.40
10447;DHT22;5271;44.422;26.092;2023-04-08T03:17:30;10.30;93.40
10447;DHT22;5271;44.422;26.092;2023-04-08T03:19:59;10.30;93.40
10447;DHT22;5271;44.422;26.092;2023-04-08T03:22:25;10.30;93.60
10447;DHT22;5271;44.422;26.092;2023-04-08T03:24:54;10.20;93.70
10447;DHT22;5271;44.422;26.092;2023-04-08T03:27:21;10.20;93.80
10447;DHT22;5271;44.422;26.092;2023-04-08T03:29:47;10.20;93.70
10447;DHT22;5271;44.422;26.092;2023-04-08T03:32:14;10.20;93.90
10447;DHT22;5271;44.422;26.092;2023-04-08T03:34:41;10.20;93.80
10447;DHT22;5271;44.422;26.092;2023-04-08T03:37:08;10.20;93.90
10447;DHT22;5271;44.422;26.092;2023-04-08T03:39:35;10.10;94.00
10447;DHT22;5271;44.422;26.092;2023-04-08T03:42:03;10.10;94.10
10447;DHT22;5271;44.422;26.092;2023-04-08T03:44:30;10.00;94.10
10447;DHT22;5271;44.422;26.092;2023-04-08T03:46:57;10.00;94.10
10447;DHT22;5271;44.422;26.092;2023-04-08T03:49:23;10.00;94.30
10447;DHT22;5271;44.422;26.092;2023-04-08T03:51:50;10.00;94.30
10447;DHT22;5271;44.422;26.092;2023-04-08T03:54:17;10.00;94.20
10447;DHT22;5271;44.422;26.092;2023-04-08T03:56:44;10.00;94.10
10447;DHT22;5271;44.422;26.092;2023-04-08T03:59:12;10.00;94.20
10447;DHT22;5271;44.422;26.092;2023-04-08T04:01:39;10.00;94.30
10447;DHT22;5271;44.422;26.092;2023-04-08T04:04:06;10.00;94.20
10447;DHT22;5271;44.422;26.092;2023-04-08T04:06:33;10.00;94.30
10447;DHT22;5271;44.422;26.092;2023-04-08T04:08:59;10.00;94.40
10447;DHT22;5271;44.422;26.092;2023-04-08T04:11:26;10.00;94.40
10447;DHT22;5271;44.422;26.092;2023-04-08T04:13:53;9.90;94.50
10447;DHT22;5271;44.422;26.092;2023-04-08T04:16:21;9.90;94.50
10447;DHT22;5271;44.422;26.092;2023-04-08T04:18:48;9.90;94.40
10447;DHT22;5271;44.422;26.092;2023-04-08T04:21:15;9.90;94.50
10447;DHT22;5271;44.422;26.092;2023-04-08T04:23:42;9.90;94.40
10447;DHT22;5271;44.422;26.092;2023-04-08T04:26:09;9.90;94.40
10447;DHT22;5271;44.422;26.092;2023-04-08T04:28:36;10.00;94.40
10447;DHT22;5271;44.422;26.092;2023-04-08T04:31:03;10.00;94.30
10447;DHT22;5271;44.422;26.092;2023-04-08T04:33:31;10.00;94.50
10447;DHT22;5271;44.422;26.092;2023-04-08T04:35:58;9.90;94.30
10447;DHT22;5271;44.422;26.092;2023-04-08T04:38:25;10.00;94.40
10447;DHT22;5271;44.422;26.092;2023-04-08T04:40:52;10.00;94.30
10447;DHT22;5271;44.422;26.092;2023-04-08T04:43:19;10.00;94.20
10447;DHT22;5271;44.422;26.092;2023-04-08T04:45:45;10.00;94.20
10447;DHT22;5271;44.422;26.092;2023-04-08T04:48:12;10.00;94.20
10447;DHT22;5271;44.422;26.092;2023-04-08T04:50:41;10.00;94.10
10447;DHT22;5271;44.422;26.092;2023-04-08T04:53:08;10.00;94.20
10447;DHT22;5271;44.422;26.092;2023-04-08T04:55:35;10.00;94.10
10447;DHT22;5271;44.422;26.092;2023-04-08T04:58:01;10.00;94.20
10447;DHT22;5271;44.422;26.092;2023-04-08T05:00:28;10.00;94.10
10447;DHT22;5271;44.422;26.092;2023-04-08T05:02:55;10.00;94.10
10447;DHT22;5271;44.422;26.092;2023-04-08T05:05:22;10.00;94.20
10447;DHT22;5271;44.422;26.092;2023-04-08T05:07:50;10.00;94.20
10447;DHT22;5271;44.422;26.092;2023-04-08T05:10:18;10.00;94.30
10447;DHT22;5271;44.422;26.092;2023-04-08T05:12:45;10.00;94.30
10447;DHT22;5271;44.422;26.092;2023-04-08T05:15:12;10.00;94.30
10447;DHT22;5271;44.422;26.092;2023-04-08T05:17:39;10.00;94.40
10447;DHT22;5271;44.422;26.092;2023-04-08T05:20:06;10.00;94.40
10447;DHT22;5271;44.422;26.092;2023-04-08T05:22:33;9.90;94.40
10447;DHT22;5271;44.422;26.092;2023-04-08T05:25:01;9.90;94.50
10447;DHT22;5271;44.422;26.092;2023-04-08T05:27:28;10.00;94.50
10447;DHT22;5271;44.422;26.092;2023-04-08T05:29:55;10.00;94.40
10447;DHT22;5271;44.422;26.092;2023-04-08T05:32:22;10.10;94.30
10447;DHT22;5271;44.422;26.092;2023-04-08T05:34:49;10.10;94.40
10447;DHT22;5271;44.422;26.092;2023-04-08T05:37:16;10.10;94.40
10447;DHT22;5271;44.422;26.092;2023-04-08T05:39:43;10.00;94.40
10447;DHT22;5271;44.422;26.092;2023-04-08T05:42:11;10.00;94.50
10447;DHT22;5271;44.422;26.092;2023-04-08T05:44:38;10.00;94.50
10447;DHT22;5271;44.422;26.092;2023-04-08T05:47:08;10.00;94.50
10447;DHT22;5271;44.422;26.092;2023-04-08T05:49:35;10.00;94.70
10447;DHT22;5271;44.422;26.092;2023-04-08T05:52:02;10.00;94.70
10447;DHT22;5271;44.422;26.092;2023-04-08T05:54:29;10.00;95.10
10447;DHT22;5271;44.422;26.092;2023-04-08T05:56:55;10.00;94.80
10447;DHT22;5271;44.422;26.092;2023-04-08T05:59:24;10.00;94.80
10447;DHT22;5271;44.422;26.092;2023-04-08T06:01:50;10.00;95.00
10447;DHT22;5271;44.422;26.092;2023-04-08T06:04:19;10.00;95.00
10447;DHT22;5271;44.422;26.092;2023-04-08T06:06:45;10.00;94.90
10447;DHT22;5271;44.422;26.092;2023-04-08T06:09:12;10.00;94.90
10447;DHT22;5271;44.422;26.092;2023-04-08T06:11:39;10.00;94.90
10447;DHT22;5271;44.422;26.092;2023-04-08T06:14:06;10.00;94.80
10447;DHT22;5271;44.422;26.092;2023-04-08T06:16:34;10.00;95.20
10447;DHT22;5271;44.422;26.092;2023-04-08T06:19:01;9.90;95.50
10447;DHT22;5271;44.422;26.092;2023-04-08T06:21:28;9.80;95.70
10447;DHT22;5271;44.422;26.092;2023-04-08T06:23:54;9.70;95.60
10447;DHT22;5271;44.422;26.092;2023-04-08T06:26:21;9.70;95.90
10447;DHT22;5271;44.422;26.092;2023-04-08T06:28:48;9.80;95.90
10447;DHT22;5271;44.422;26.092;2023-04-08T06:31:16;9.80;95.70
10447;DHT22;5271;44.422;26.092;2023-04-08T06:33:44;9.90;95.50
10447;DHT22;5271;44.422;26.092;2023-04-08T06:36:11;9.90;95.30
10447;DHT22;5271;44.422;26.092;2023-04-08T06:38:38;9.90;95.50
10447;DHT22;5271;44.422;26.092;2023-04-08T06:41:06;9.90;95.40
10447;DHT22;5271;44.422;26.092;2023-04-08T06:43:33;9.90;95.60
10447;DHT22;5271;44.422;26.092;2023-04-08T06:46:01;9.80;95.80
10447;DHT22;5271;44.422;26.092;2023-04-08T06:48:27;9.70;95.80
10447;DHT22;5271;44.422;26.092;2023-04-08T06:50:56;9.70;96.00
10447;DHT22;5271;44.422;26.092;2023-04-08T06:53:23;9.80;96.10
10447;DHT22;5271;44.422;26.092;2023-04-08T06:55:50;9.80;96.00
10447;DHT22;5271;44.422;26.092;2023-04-08T06:58:17;9.90;96.10
10447;DHT22;5271;44.422;26.092;2023-04-08T07:00:44;9.90;96.20
10447;DHT22;5271;44.422;26.092;2023-04-08T07:03:11;9.80;96.20
10447;DHT22;5271;44.422;26.092;2023-04-08T07:05:38;9.90;96.30
10447;DHT22;5271;44.422;26.092;2023-04-08T07:08:08;9.90;96.30
10447;DHT22;5271;44.422;26.092;2023-04-08T07:10:35;9.90;96.30
10447;DHT22;5271;44.422;26.092;2023-04-08T07:13:02;10.00;96.20
10447;DHT22;5271;44.422;26.092;2023-04-08T07:15:28;10.10;96.10
10447;DHT22;5271;44.422;26.092;2023-04-08T07:17:56;10.30;95.90
10447;DHT22;5271;44.422;26.092;2023-04-08T07:20:23;10.40;95.70
10447;DHT22;5271;44.422;26.092;2023-04-08T07:22:50;10.50;95.40
10447;DHT22;5271;44.422;26.092;2023-04-08T07:25:19;10.50;95.10
10447;DHT22;5271;44.422;26.092;2023-04-08T07:27:45;10.50;95.00
10447;DHT22;5271;44.422;26.092;2023-04-08T07:30:12;10.50;95.10
10447;DHT22;5271;44.422;26.092;2023-04-08T07:32:39;10.50;95.20
10447;DHT22;5271;44.422;26.092;2023-04-08T07:35:07;10.50;95.30
10447;DHT22;5271;44.422;26.092;2023-04-08T07:37:33;10.50;95.40
10447;DHT22;5271;44.422;26.092;2023-04-08T07:40:00;10.60;95.40
10447;DHT22;5271;44.422;26.092;2023-04-08T07:42:28;10.90;95.20
10447;DHT22;5271;44.422;26.092;2023-04-08T07:44:55;11.10;94.90
10447;DHT22;5271;44.422;26.092;2023-04-08T07:47:22;11.30;94.60
10447;DHT22;5271;44.422;26.092;2023-04-08T07:49:49;11.50;94.40
10447;DHT22;5271;44.422;26.092;2023-04-08T07:52:16;11.80;93.80
10447;DHT22;5271;44.422;26.092;2023-04-08T07:54:43;12.00;93.60
10447;DHT22;5271;44.422;26.092;2023-04-08T07:57:09;12.10;93.20
10447;DHT22;5271;44.422;26.092;2023-04-08T07:59:38;12.10;92.80
10447;DHT22;5271;44.422;26.092;2023-04-08T08:02:05;12.20;92.60
10447;DHT22;5271;44.422;26.092;2023-04-08T08:04:32;13.50;92.30
10447;DHT22;5271;44.422;26.092;2023-04-08T08:06:59;14.70;90.20
10447;DHT22;5271;44.422;26.092;2023-04-08T08:09:25;15.20;88.10
10447;DHT22;5271;44.422;26.092;2023-04-08T08:11:52;17.10;85.80
10447;DHT22;5271;44.422;26.092;2023-04-08T08:14:19;18.90;79.70
10447;DHT22;5271;44.422;26.092;2023-04-08T08:16:47;20.30;74.00
10447;DHT22;5271;44.422;26.092;2023-04-08T08:19:15;21.40;72.70
10447;DHT22;5271;44.422;26.092;2023-04-08T08:21:42;22.40;69.50
10447;DHT22;5271;44.422;26.092;2023-04-08T08:24:08;23.40;65.60
10447;DHT22;5271;44.422;26.092;2023-04-08T08:26:36;24.10;63.00
10447;DHT22;5271;44.422;26.092;2023-04-08T08:29:03;23.70;61.70
10447;DHT22;5271;44.422;26.092;2023-04-08T08:31:31;21.90;64.20
10447;DHT22;5271;44.422;26.092;2023-04-08T08:33:59;20.40;65.60
10447;DHT22;5271;44.422;26.092;2023-04-08T08:36:26;19.10;69.00
10447;DHT22;5271;44.422;26.092;2023-04-08T08:38:53;17.90;70.80
10447;DHT22;5271;44.422;26.092;2023-04-08T08:41:19;16.90;73.60
10447;DHT22;5271;44.422;26.092;2023-04-08T08:43:46;16.30;75.60
10447;DHT22;5271;44.422;26.092;2023-04-08T08:46:16;15.70;77.20
10447;DHT22;5271;44.422;26.092;2023-04-08T08:48:43;15.30;80.10
10447;DHT22;5271;44.422;26.092;2023-04-08T08:51:13;15.20;80.40
10447;DHT22;5271;44.422;26.092;2023-04-08T08:53:40;15.10;80.80
10447;DHT22;5271;44.422;26.092;2023-04-08T08:56:10;14.90;81.00
10447;DHT22;5271;44.422;26.092;2023-04-08T08:58:37;14.70;81.40
10447;DHT22;5271;44.422;26.092;2023-04-08T09:01:28;14.70;82.10
10447;DHT22;5271;44.422;26.092;2023-04-08T09:04:06;14.80;82.20
10447;DHT22;5271;44.422;26.092;2023-04-08T09:06:35;14.90;81.60
10447;DHT22;5271;44.422;26.092;2023-04-08T09:09:02;14.80;81.00
10447;DHT22;5271;44.422;26.092;2023-04-08T09:11:30;14.80;81.50
10447;DHT22;5271;44.422;26.092;2023-04-08T09:13:57;14.80;81.70
10447;DHT22;5271;44.422;26.092;2023-04-08T09:16:24;14.90;81.90
10447;DHT22;5271;44.422;26.092;2023-04-08T09:18:52;15.00;81.30
10447;DHT22;5271;44.422;26.092;2023-04-08T09:21:22;14.90;81.50
10447;DHT22;5271;44.422;26.092;2023-04-08T09:23:53;15.00;81.90
10447;DHT22;5271;44.422;26.092;2023-04-08T09:26:21;15.20;82.30
10447;DHT22;5271;44.422;26.092;2023-04-08T09:28:59;15.30;81.50
10447;DHT22;5271;44.422;26.092;2023-04-08T09:31:27;15.50;82.20
10447;DHT22;5271;44.422;26.092;2023-04-08T09:33:56;15.60;81.10
10447;DHT22;5271;44.422;26.092;2023-04-08T09:36:23;15.70;80.70
10447;DHT22;5271;44.422;26.092;2023-04-08T09:38:53;15.70;81.00
10447;DHT22;5271;44.422;26.092;2023-04-08T09:41:21;15.80;80.70
10447;DHT22;5271;44.422;26.092;2023-04-08T09:43:50;15.90;81.00
10447;DHT22;5271;44.422;26.092;2023-04-08T09:46:18;16.00;81.30
10447;DHT22;5271;44.422;26.092;2023-04-08T09:49:04;16.00;79.90
10447;DHT22;5271;44.422;26.092;2023-04-08T09:51:34;16.10;79.20
10447;DHT22;5271;44.422;26.092;2023-04-08T09:54:10;16.10;79.60
10447;DHT22;5271;44.422;26.092;2023-04-08T09:56:42;16.10;78.20
10447;DHT22;5271;44.422;26.092;2023-04-08T09:59:13;16.00;78.60
10447;DHT22;5271;44.422;26.092;2023-04-08T10:01:46;15.90;79.20
10447;DHT22;5271;44.422;26.092;2023-04-08T10:04:19;15.90;79.00
10447;DHT22;5271;44.422;26.092;2023-04-08T10:06:50;16.00;79.20
10447;DHT22;5271;44.422;26.092;2023-04-08T10:09:20;16.10;78.80
10447;DHT22;5271;44.422;26.092;2023-04-08T10:11:48;16.20;79.10
10447;DHT22;5271;44.422;26.092;2023-04-08T10:14:15;16.20;78.00
10447;DHT22;5271;44.422;26.092;2023-04-08T10:16:42;16.30;78.20
10447;DHT22;5271;44.422;26.092;2023-04-08T10:19:36;16.40;77.60
10447;DHT22;5271;44.422;26.092;2023-04-08T10:22:45;16.40;77.30
10447;DHT22;5271;44.422;26.092;2023-04-08T10:25:31;16.50;77.30
10447;DHT22;5271;44.422;26.092;2023-04-08T10:27:58;16.50;77.60
10447;DHT22;5271;44.422;26.092;2023-04-08T10:30:43;16.50;77.60
10447;DHT22;5271;44.422;26.092;2023-04-08T10:33:12;16.50;77.70
10447;DHT22;5271;44.422;26.092;2023-04-08T10:35:41;16.60;77.80
10447;DHT22;5271;44.422;26.092;2023-04-08T10:38:11;16.60;77.40
10447;DHT22;5271;44.422;26.092;2023-04-08T10:40:41;16.70;76.60
10447;DHT22;5271;44.422;26.092;2023-04-08T10:43:08;16.80;76.10
10447;DHT22;5271;44.422;26.092;2023-04-08T10:45:36;16.90;74.80
10447;DHT22;5271;44.422;26.092;2023-04-08T10:48:13;16.90;75.50
10447;DHT22;5271;44.422;26.092;2023-04-08T10:50:41;17.00;74.70
10447;DHT22;5271;44.422;26.092;2023-04-08T10:53:07;17.00;74.50
10447;DHT22;5271;44.422;26.092;2023-04-08T10:55:35;17.00;74.70
10447;DHT22;5271;44.422;26.092;2023-04-08T10:58:08;17.00;75.30
10447;DHT22;5271;44.422;26.092;2023-04-08T11:00:36;17.10;74.20
10447;DHT22;5271;44.422;26.092;2023-04-08T11:03:04;17.20;73.50
10447;DHT22;5271;44.422;26.092;2023-04-08T11:05:32;17.20;73.20
10447;DHT22;5271;44.422;26.092;2023-04-08T11:07:59;17.20;72.90
10447;DHT22;5271;44.422;26.092;2023-04-08T11:10:26;17.30;73.40
10447;DHT22;5271;44.422;26.092;2023-04-08T11:12:55;17.40;73.20
10447;DHT22;5271;44.422;26.092;2023-04-08T11:15:24;17.40;72.60
10447;DHT22;5271;44.422;26.092;2023-04-08T11:17:51;17.50;72.10
10447;DHT22;5271;44.422;26.092;2023-04-08T11:20:19;17.50;71.80
10447;DHT22;5271;44.422;26.092;2023-04-08T11:22:47;17.50;71.60
10447;DHT22;5271;44.422;26.092;2023-04-08T11:25:14;17.50;70.60
10447;DHT22;5271;44.422;26.092;2023-04-08T11:27:41;17.30;71.50
10447;DHT22;5271;44.422;26.092;2023-04-08T11:30:09;17.50;71.90
10447;DHT22;5271;44.422;26.092;2023-04-08T11:32:38;17.50;71.70
10447;DHT22;5271;44.422;26.092;2023-04-08T11:35:05;17.60;70.10
10447;DHT22;5271;44.422;26.092;2023-04-08T11:37:36;17.50;70.70
10447;DHT22;5271;44.422;26.092;2023-04-08T11:40:08;17.50;70.90
10447;DHT22;5271;44.422;26.092;2023-04-08T11:42:35;17.60;70.80
10447;DHT22;5271;44.422;26.092;2023-04-08T11:45:09;17.50;70.60
10447;DHT22;5271;44.422;26.092;2023-04-08T11:47:38;17.50;70.90
10447;DHT22;5271;44.422;26.092;2023-04-08T11:50:06;17.40;70.60
10447;DHT22;5271;44.422;26.092;2023-04-08T11:52:43;17.30;70.50
10447;DHT22;5271;44.422;26.092;2023-04-08T11:55:10;17.40;70.80
10447;DHT22;5271;44.422;26.092;2023-04-08T11:57:38;17.30;70.50
10447;DHT22;5271;44.422;26.092;2023-04-08T12:00:06;17.20;70.70
10447;DHT22;5271;44.422;26.092;2023-04-08T12:02:34;17.20;71.40
10447;DHT22;5271;44.422;26.092;2023-04-08T12:05:02;17.20;71.30
10447;DHT22;5271;44.422;26.092;2023-04-08T12:07:29;17.10;71.40
10447;DHT22;5271;44.422;26.092;2023-04-08T12:09:56;17.00;71.40
10447;DHT22;5271;44.422;26.092;2023-04-08T12:12:23;17.00;72.30
10447;DHT22;5271;44.422;26.092;2023-04-08T12:14:50;17.00;72.70
10447;DHT22;5271;44.422;26.092;2023-04-08T12:17:17;17.00;72.70
10447;DHT22;5271;44.422;26.092;2023-04-08T12:19:44;17.10;72.30
10447;DHT22;5271;44.422;26.092;2023-04-08T12:22:12;17.10;71.90
10447;DHT22;5271;44.422;26.092;2023-04-08T12:24:39;17.10;72.00
10447;DHT22;5271;44.422;26.092;2023-04-08T12:27:06;17.10;72.60
10447;DHT22;5271;44.422;26.092;2023-04-08T12:29:33;17.10;73.10
10447;DHT22;5271;44.422;26.092;2023-04-08T12:32:00;17.20;73.60
10447;DHT22;5271;44.422;26.092;2023-04-08T12:34:29;17.20;73.70
10447;DHT22;5271;44.422;26.092;2023-04-08T12:36:55;17.10;72.60
10447;DHT22;5271;44.422;26.092;2023-04-08T12:39:24;17.10;72.90
10447;DHT22;5271;44.422;26.092;2023-04-08T12:41:51;17.10;73.20
10447;DHT22;5271;44.422;26.092;2023-04-08T12:44:18;17.10;73.50
10447;DHT22;5271;44.422;26.092;2023-04-08T12:46:45;17.20;73.70
10447;DHT22;5271;44.422;26.092;2023-04-08T12:49:12;17.20;73.50
10447;DHT22;5271;44.422;26.092;2023-04-08T12:51:39;17.30;73.60
10447;DHT22;5271;44.422;26.092;2023-04-08T12:54:06;17.30;72.80
10447;DHT22;5271;44.422;26.092;2023-04-08T12:56:34;17.20;72.70
10447;DHT22;5271;44.422;26.092;2023-04-08T12:59:01;17.20;72.90
10447;DHT22;5271;44.422;26.092;2023-04-08T13:01:28;17.30;73.00
10447;DHT22;5271;44.422;26.092;2023-04-08T13:03:55;17.30;72.60
10447;DHT22;5271;44.422;26.092;2023-04-08T13:06:22;17.20;72.10
10447;DHT22;5271;44.422;26.092;2023-04-08T13:08:48;17.20;72.00
10447;DHT22;5271;44.422;26.092;2023-04-08T13:11:15;17.30;71.90
10447;DHT22;5271;44.422;26.092;2023-04-08T13:13:44;17.30;71.60
10447;DHT22;5271;44.422;26.092;2023-04-08T13:16:11;17.40;71.40
10447;DHT22;5271;44.422;26.092;2023-04-08T13:18:38;17.40;70.80
10447;DHT22;5271;44.422;26.092;2023-04-08T13:21:05;17.40;70.80
10447;DHT22;5271;44.422;26.092;2023-04-08T13:23:32;17.40;70.90
10447;DHT22;5271;44.422;26.092;2023-04-08T13:25:59;17.30;70.50
10447;DHT22;5271;44.422;26.092;2023-04-08T13:28:26;17.30;70.40
10447;DHT22;5271;44.422;26.092;2023-04-08T13:30:55;17.40;69.70
10447;DHT22;5271;44.422;26.092;2023-04-08T13:33:21;17.30;69.40
10447;DHT22;5271;44.422;26.092;2023-04-08T13:35:48;17.40;69.90
10447;DHT22;5271;44.422;26.092;2023-04-08T13:38:15;17.40;70.30
10447;DHT22;5271;44.422;26.092;2023-04-08T13:40:42;17.40;68.90
10447;DHT22;5271;44.422;26.092;2023-04-08T13:43:09;17.40;69.10
10447;DHT22;5271;44.422;26.092;2023-04-08T13:45:37;17.40;69.70
10447;DHT22;5271;44.422;26.092;2023-04-08T13:48:06;17.50;69.00
10447;DHT22;5271;44.422;26.092;2023-04-08T13:50:33;17.50;69.00
10447;DHT22;5271;44.422;26.092;2023-04-08T13:53:00;17.50;68.60
10447;DHT22;5271;44.422;26.092;2023-04-08T13:55:27;17.50;69.00
10447;DHT22;5271;44.422;26.092;2023-04-08T13:57:53;17.50;69.00
10447;DHT22;5271;44.422;26.092;2023-04-08T14:00:20;17.60;69.50
10447;DHT22;5271;44.422;26.092;2023-04-08T14:02:49;17.60;69.20
10447;DHT22;5271;44.422;26.092;2023-04-08T14:05:18;17.70;68.40
10447;DHT22;5271;44.422;26.092;2023-04-08T14:07:45;17.60;68.50
10447;DHT22;5271;44.422;26.092;2023-04-08T14:10:11;17.60;68.60
10447;DHT22;5271;44.422;26.092;2023-04-08T14:12:40;17.60;69.20
10447;DHT22;5271;44.422;26.092;2023-04-08T14:15:08;17.60;69.40
10447;DHT22;5271;44.422;26.092;2023-04-08T14:17:35;17.60;69.00
10447;DHT22;5271;44.422;26.092;2023-04-08T14:20:03;17.60;68.60
10447;DHT22;5271;44.422;26.092;2023-04-08T14:22:32;17.70;68.40
10447;DHT22;5271;44.422;26.092;2023-04-08T14:24:59;17.60;67.50
10447;DHT22;5271;44.422;26.092;2023-04-08T14:27:25;17.60;67.80
10447;DHT22;5271;44.422;26.092;2023-04-08T14:29:53;17.60;68.30
10447;DHT22;5271;44.422;26.092;2023-04-08T14:32:20;17.60;68.80
10447;DHT22;5271;44.422;26.092;2023-04-08T14:34:46;17.60;69.10
10447;DHT22;5271;44.422;26.092;2023-04-08T14:37:13;17.60;69.10
10447;DHT22;5271;44.422;26.092;2023-04-08T14:39:43;17.60;68.90
10447;DHT22;5271;44.422;26.092;2023-04-08T14:42:10;17.60;68.60
10447;DHT22;5271;44.422;26.092;2023-04-08T14:44:37;17.60;69.10
10447;DHT22;5271;44.422;26.092;2023-04-08T14:47:04;17.50;70.10
10447;DHT22;5271;44.422;26.092;2023-04-08T14:49:31;17.50;69.90
10447;DHT22;5271;44.422;26.092;2023-04-08T14:51:57;17.50;70.00
10447;DHT22;5271;44.422;26.092;2023-04-08T14:54:25;17.40;70.30
10447;DHT22;5271;44.422;26.092;2023-04-08T14:56:53;17.40;70.50
10447;DHT22;5271;44.422;26.092;2023-04-08T14:59:20;17.40;70.60
10447;DHT22;5271;44.422;26.092;2023-04-08T15:01:47;17.50;70.70
10447;DHT22;5271;44.422;26.092;2023-04-08T15:04:14;17.50;70.30
10447;DHT22;5271;44.422;26.092;2023-04-08T15:06:41;17.50;69.60
10447;DHT22;5271;44.422;26.092;2023-04-08T15:09:08;17.50;69.30
10447;DHT22;5271;44.422;26.092;2023-04-08T15:11:35;17.60;69.50
10447;DHT22;5271;44.422;26.092;2023-04-08T15:14:03;17.60;69.60
10447;DHT22;5271;44.422;26.092;2023-04-08T15:16:30;17.50;69.90
10447;DHT22;5271;44.422;26.092;2023-04-08T15:18:57;17.50;69.80
10447;DHT22;5271;44.422;26.092;2023-04-08T15:21:25;17.50;69.70
10447;DHT22;5271;44.422;26.092;2023-04-08T15:23:52;17.50;69.30
10447;DHT22;5271;44.422;26.092;2023-04-08T15:26:19;17.50;68.90
10447;DHT22;5271;44.422;26.092;2023-04-08T15:28:46;17.50;69.00
10447;DHT22;5271;44.422;26.092;2023-04-08T15:31:14;17.50;69.40
10447;DHT22;5271;44.422;26.092;2023-04-08T15:33:41;17.50;69.70
10447;DHT22;5271;44.422;26.092;2023-04-08T15:36:09;17.50;69.90
10447;DHT22;5271;44.422;26.092;2023-04-08T15:38:36;17.50;69.30